Terminal Aerodrome Forecast
Issued by NWS

Home | Current Version | Previous Version | Text Only | Print | Product List | Glossary On
Versions: 1 2 3 4 5 6 7 8 9 10 11 12 13 14 15 16 17 18 19 20 21 22 23 24 25 26 27 28
659
FTUS46 KLOX 201102 AAE
TAFSBP
TAF AMD
KSBP 201102Z 2011/2106 14006KT P6SM -RA SCT017 BKN035 OVC060
     FM201300 14008KT 5SM -RA BR OVC015
     FM201500 14018G28KT 2SM RA BR BKN007 OVC015
     FM201800 28020G30KT 4SM -SHRA BR BKN015 OVC025
     FM210200 30014KT P6SM VCSH BKN025=

USA.gov is the U.S. government's official web portal to all federal, state and local government web resources and services.